• Join FlightAware (Why Join?)
  • Login
  • US Flag 
 
09:00AM EST


 

Airport Tracker/Info


-or-


 

Live Flight TrackerFlight Track Log ✈ BOE5 ✈ 13-Sep-2013 ✈ KBFI - KPAE

Flight Track Log - Related Links

Times and Time Zones

All times are in EDT time to prevent confusion due to time zone crossing. See the BOE5 flight status page for this flight to view local times or setup timezone preferences in your user account.

Time Position Orientation Groundspeed Altitude Reporting Facility
EDT Latitude Longitude Course Direction KTS MPH feet Rate Location/Type
04:03PM 47.5117 -122.2878 147° Southeast 173 199 1,300  Level Seattle Center
04:04PM 47.4417 -122.2217 147° Southeast 276 318 4,000 1,620 Climbing Seattle Center
04:05PM 47.3692 -122.1733 156° South 305 351 5,100 1,380 Climbing Seattle Center
04:06PM 47.3064 -122.1678 177° South 293 337 6,500 1,860 Climbing Seattle Center
04:06PM 47.2872 -122.1661 177° South 297 342 7,000 960 Climbing Seattle Center
04:07PM 47.2139 -122.1839 189° South 293 337 7,700 1,020 Climbing Seattle Center
04:08PM 47.1908 -122.2772 250° West 294 338 8,900 2,160 Climbing Seattle Center
04:08PM 47.1897 -122.2983 266° West 296 341 9,900 3,420 Climbing Seattle Center
04:09PM 47.1875 -122.4117 268° West 305 351 12,400 3,240 Climbing Seattle Center
04:09PM 47.1864 -122.4336 266° West 312 359 13,200 2,400 Climbing Seattle Center
04:10PM 47.1844 -122.5411 269° West 315 362 14,900 900 Climbing Seattle Center
04:11PM 47.1811 -122.6747 268° West 325 374 15,000  Climbing Seattle Center
04:12PM 47.1781 -122.8061 268° West 323 372 15,000  Level Seattle Center
04:13PM 47.1742 -122.9469 268° West 321 369 15,000  Level Seattle Center
04:14PM 47.1706 -123.0781 268° West 321 369 15,000  Level Seattle Center
04:15PM 47.1664 -123.2089 267° West 321 369 15,000  Level Seattle Center
04:16PM 47.1628 -123.3386 268° West 318 366 15,000  Level Seattle Center
04:17PM 47.1050 -123.4372 229° Southwest 290 334 15,000  Level Seattle Center
04:18PM 47.0347 -123.4631 194° South 260 299 15,000  Level Seattle Center
04:19PM 46.9636 -123.4986 199° South 263 303 15,000  Level Seattle Center
04:20PM 46.8958 -123.5328 199° South 261 300 15,000  Level Seattle Center
04:21PM 46.8267 -123.5653 198° South 263 303 15,000  Level Seattle Center
04:22PM 46.7583 -123.5978 198° South 260 299 15,000  Level Seattle Center
04:23PM 46.6892 -123.6314 198° South 264 304 15,000  Level Seattle Center
04:24PM 46.6208 -123.6642 198° South 262 302 15,000  Level Seattle Center
04:25PM 46.5517 -123.6958 197° South 262 302 15,000  Level Seattle Center
04:26PM 46.4689 -123.7342 198° South 264 304 15,000 -60 Level Seattle Center
04:27PM 46.3992 -123.7667 198° South 265 305 14,900 -60 Descending Seattle Center
04:28PM 46.3272 -123.7986 197° South 269 310 14,900  Level Seattle Center
04:29PM 46.2569 -123.8350 200° South 267 307 14,900  Level Seattle Center
04:30PM 46.1867 -123.8681 198° South 265 305 14,900  Level Seattle Center
04:31PM 46.1142 -123.8903 192° South 268 308 14,900  Level Seattle Center
04:32PM 46.0408 -123.8944 182° South 266 306 14,900  Level Seattle Center
04:33PM 45.9675 -123.9019 184° South 265 305 14,900  Level Seattle Center
04:34PM 45.8933 -123.9108 185° South 266 306 14,900  Level Seattle Center
04:35PM 45.8189 -123.9194 185° South 268 308 14,900  Level Seattle Center
04:36PM 45.7283 -123.9331 186° South 269 310 14,900  Level Seattle Center
04:37PM 45.6550 -123.9397 184° South 270 311 14,900  Level Seattle Center
04:38PM 45.5811 -123.9494 185° South 268 308 14,900  Level Seattle Center
04:39PM 45.5086 -123.9578 185° South 264 304 14,900  Level Seattle Center
04:40PM 45.4344 -123.9636 183° South 268 308 14,900  Level Seattle Center
04:41PM 45.3614 -123.9736 185° South 265 305 14,900  Level Seattle Center
04:42PM 45.2886 -123.9817 184° South 264 304 15,000  Climbing Seattle Center
04:43PM 45.2164 -123.9919 186° South 264 304 15,000  Level Seattle Center
04:45PM 45.1342 -123.9989 183° South 253 291 15,000  Level Seattle Center
04:46PM 45.0661 -124.0061 184° South 249 287 15,000  Level Seattle Center
04:47PM 44.9911 -124.0139 184° South 268 308 15,000  Level Seattle Center
04:48PM 44.9156 -124.0231 185° South 275 316 15,000  Level Seattle Center
04:49PM 44.8400 -124.0322 185° South 275 316 15,000  Level Seattle Center
04:50PM 44.7647 -124.0408 185° South 276 318 15,000  Level Seattle Center
04:51PM 44.6853 -124.0489 184° South 289 333 15,000  Level Seattle Center
04:52PM 44.5850 -124.0611 185° South 302 348 15,000  Level Seattle Center
04:53PM 44.5033 -124.0672 183° South 298 343 15,000  Level Seattle Center
04:54PM 44.4206 -124.0725 183° South 299 344 15,000  Level Seattle Center
04:55PM 44.3408 -124.0683 178° South 306 352 15,000  Level Seattle Center
04:56PM 44.3375 -123.9747 93° East 282 325 15,000  Level Seattle Center
04:57PM 44.4164 -123.9650 North 288 331 15,000  Level Seattle Center
04:58PM 44.4900 -124.0089 337° Northwest 287 330 15,000  Level Seattle Center
04:59PM 44.5633 -124.0550 336° Northwest 288 331 15,000  Level Seattle Center
05:00PM 44.6439 -124.0456 North 289 333 15,000  Level Seattle Center
05:01PM 44.7261 -124.0250 10° North 298 343 15,000  Level Seattle Center
05:02PM 44.8261 -124.0019 North 301 346 15,000  Level Seattle Center
05:03PM 44.9097 -123.9789 11° North 302 348 15,000  Level Seattle Center
05:04PM 44.9933 -123.9600 North 303 349 15,000  Level Seattle Center
05:05PM 45.0764 -123.9392 10° North 301 346 15,000  Level Seattle Center
05:06PM 45.1592 -123.9192 10° North 301 346 15,000  Level Seattle Center
05:07PM 45.2433 -123.8981 10° North 303 349 15,000  Level Seattle Center
05:08PM 45.3306 -123.8756 10° North 313 360 15,000 -60 Level Seattle Center
05:09PM 45.4158 -123.8564 North 311 358 14,900 -60 Descending Seattle Center
05:10PM 45.5014 -123.8356 10° North 312 359 14,900  Level Seattle Center
05:11PM 45.5864 -123.8142 10° North 311 358 14,900 -60 Level Seattle Center
05:12PM 45.6722 -123.7928 10° North 312 359 14,800 -540 Descending Seattle Center
05:13PM 45.7583 -123.7694 11° North 315 362 13,900 -480 Descending Seattle Center
05:14PM 45.8583 -123.7431 10° North 308 354 13,900  Level Seattle Center
05:15PM 45.9422 -123.7258 North 305 351 13,900  Level Seattle Center
05:16PM 46.0258 -123.7044 10° North 305 351 13,900  Level Seattle Center
05:17PM 46.1106 -123.6828 10° North 309 356 13,900  Level Seattle Center
05:18PM 46.1953 -123.6603 10° North 310 357 13,900  Level Seattle Center
05:19PM 46.2811 -123.6394 10° North 313 360 13,900  Level Seattle Center
05:20PM 46.3647 -123.6183 10° North 309 356 13,900  Level Seattle Center
05:21PM 46.4608 -123.5903 11° North 311 358 14,000  Climbing Seattle Center
05:22PM 46.5447 -123.5717 North 307 353 14,000  Level Seattle Center
05:23PM 46.6286 -123.5478 11° North 311 358 14,000  Level Seattle Center
05:24PM 46.7136 -123.5292 North 311 358 14,000  Level Seattle Center
05:25PM 46.7989 -123.5067 10° North 314 361 14,000  Level Seattle Center
05:26PM 46.8825 -123.4803 12° North 312 359 14,000  Level Seattle Center
05:27PM 46.9828 -123.4519 11° North 310 357 14,000  Level Seattle Center
05:28PM 47.0675 -123.4283 11° North 309 356 14,000  Level Seattle Center
05:29PM 47.1600 -123.4019 11° North 315 362 14,000  Level Seattle Center
05:30PM 47.2381 -123.3503 24° Northeast 309 356 14,000  Level Seattle Center
05:32PM 47.3111 -123.3064 22° Northeast 312 359 14,000  Level Seattle Center
05:33PM 47.3903 -123.2564 23° Northeast 314 361 14,000 -60 Level Seattle Center
05:34PM 47.4908 -123.1911 24° Northeast 332 382 13,900 -780 Descending Seattle Center
05:35PM 47.5783 -123.1372 23° Northeast 338 389 12,500 -1,140 Descending Seattle Center
05:36PM 47.6608 -123.0844 23° Northeast 329 379 11,600 -840 Descending Seattle Center
05:36PM 47.6936 -123.0614 25° Northeast 325 374 11,400 -600 Descending Seattle Center
05:37PM 47.7242 -123.0000 53° Northeast 317 365 11,000 -600 Descending Seattle Center
05:37PM 47.7431 -122.9561 57° Northeast 296 341 10,800 -780 Descending Seattle Center
05:38PM 47.7675 -122.8992 57° Northeast 293 337 10,200 -1,620 Descending Seattle Center
05:38PM 47.7833 -122.8586 60° Northeast 280 322 9,200 -2,400 Descending Seattle Center
05:39PM 47.8069 -122.8031 58° Northeast 277 319 7,800 -2,400 Descending Seattle Center
05:39PM 47.8222 -122.7650 59° Northeast 270 311 6,800 -2,220 Descending Seattle Center
05:40PM 47.8447 -122.7081 59° Northeast 269 310 5,600 -1,920 Descending Seattle Center
05:40PM 47.8544 -122.6617 73° East 251 289 4,900 -1,380 Descending Seattle Center
05:41PM 47.8389 -122.6111 115° Southeast 264 304 4,200 -1,200 Descending Seattle Center
05:41PM 47.8219 -122.5675 120° Southeast 264 304 3,700 -1,020 Descending Seattle Center
05:42PM 47.7844 -122.5175 138° Southeast 266 306 3,200 -720 Descending Seattle Center
05:42PM 47.7658 -122.5028 152° Southeast 253 291 3,000 -840 Descending Seattle Center
05:43PM 47.7258 -122.4692 151° Southeast 246 283 2,400 -720 Descending Seattle Center
05:43PM 47.7067 -122.4531 151° Southeast 232 267 2,300 -300 Descending Seattle Center
05:44PM 47.6731 -122.4256 151° Southeast 221 254 2,100 -240 Descending Seattle Center
05:44PM 47.6592 -122.4133 149° Southeast 191 220 2,100 -120 Level Seattle Center
05:45PM 47.6242 -122.3836 150° Southeast 193 222 2,000 -420 Descending Seattle Center
05:45PM 47.6133 -122.3731 147° Southeast 171 197 1,700 -900 Descending Seattle Center
05:46PM 47.5872 -122.3517 151° Southeast 158 182 1,100 -900 Descending Seattle Center
05:46PM 47.5769 -122.3436 152° Southeast 142 163 800 -780 Descending Seattle Center
05:47PM 47.5517 -122.3217 150° Southeast 149 171 300 480 Descending Seattle Center
05:48PM 47.5311 -122.3033 149° Southeast 148 170 1,500 1,140 Climbing Seattle Center
05:48PM 47.5217 -122.2961 153° Southeast 148 170 1,500  Level Seattle Center
05:50PM 47.9070 -122.2816 North  Level Estimated